sensor_id;sensor_type;location;lat;lon;timestamp;P1;durP1;ratioP1;P2;durP2;ratioP2
75073;SDS011;63652;51.526;5.080;2024-01-30T00:00:32;8.52;;;4.63;;
75073;SDS011;63652;51.526;5.080;2024-01-30T00:02:58;8.95;;;5.13;;
75073;SDS011;63652;51.526;5.080;2024-01-30T00:05:23;10.02;;;4.97;;
75073;SDS011;63652;51.526;5.080;2024-01-30T00:07:49;9.57;;;4.82;;
75073;SDS011;63652;51.526;5.080;2024-01-30T00:10:15;8.90;;;5.88;;
75073;SDS011;63652;51.526;5.080;2024-01-30T00:12:40;10.23;;;5.05;;
75073;SDS011;63652;51.526;5.080;2024-01-30T00:15:08;10.77;;;4.78;;
75073;SDS011;63652;51.526;5.080;2024-01-30T00:17:37;10.30;;;4.57;;
75073;SDS011;63652;51.526;5.080;2024-01-30T00:20:08;10.75;;;4.63;;
75073;SDS011;63652;51.526;5.080;2024-01-30T00:22:42;9.35;;;4.75;;
75073;SDS011;63652;51.526;5.080;2024-01-30T00:25:10;7.88;;;4.63;;
75073;SDS011;63652;51.526;5.080;2024-01-30T00:27:38;10.98;;;5.35;;
75073;SDS011;63652;51.526;5.080;2024-01-30T00:30:04;8.23;;;4.95;;
75073;SDS011;63652;51.526;5.080;2024-01-30T00:32:30;13.15;;;5.32;;
75073;SDS011;63652;51.526;5.080;2024-01-30T00:34:55;8.10;;;4.65;;
75073;SDS011;63652;51.526;5.080;2024-01-30T00:37:21;15.88;;;5.75;;
75073;SDS011;63652;51.526;5.080;2024-01-30T00:39:46;11.15;;;4.88;;
75073;SDS011;63652;51.526;5.080;2024-01-30T00:42:12;8.38;;;4.57;;
75073;SDS011;63652;51.526;5.080;2024-01-30T00:44:40;11.00;;;4.80;;
75073;SDS011;63652;51.526;5.080;2024-01-30T00:47:05;8.25;;;5.25;;
75073;SDS011;63652;51.526;5.080;2024-01-30T00:49:38;8.27;;;4.63;;
75073;SDS011;63652;51.526;5.080;2024-01-30T00:52:04;8.45;;;4.47;;
75073;SDS011;63652;51.526;5.080;2024-01-30T00:54:37;9.13;;;4.25;;
75073;SDS011;63652;51.526;5.080;2024-01-30T00:57:05;6.82;;;3.92;;
75073;SDS011;63652;51.526;5.080;2024-01-30T00:59:36;9.13;;;4.70;;
75073;SDS011;63652;51.526;5.080;2024-01-30T01:02:01;8.02;;;4.40;;
75073;SDS011;63652;51.526;5.080;2024-01-30T01:04:27;8.82;;;4.38;;
75073;SDS011;63652;51.526;5.080;2024-01-30T01:06:52;8.88;;;4.30;;
75073;SDS011;63652;51.526;5.080;2024-01-30T01:09:18;8.30;;;3.75;;
75073;SDS011;63652;51.526;5.080;2024-01-30T01:11:43;10.85;;;4.53;;
75073;SDS011;63652;51.526;5.080;2024-01-30T01:14:08;6.97;;;3.75;;
75073;SDS011;63652;51.526;5.080;2024-01-30T01:16:36;7.25;;;3.92;;
75073;SDS011;63652;51.526;5.080;2024-01-30T01:19:04;10.18;;;4.22;;
75073;SDS011;63652;51.526;5.080;2024-01-30T01:21:32;6.60;;;3.78;;
75073;SDS011;63652;51.526;5.080;2024-01-30T01:23:58;11.00;;;4.47;;
75073;SDS011;63652;51.526;5.080;2024-01-30T01:26:23;7.45;;;4.10;;
75073;SDS011;63652;51.526;5.080;2024-01-30T01:28:51;7.32;;;4.05;;
75073;SDS011;63652;51.526;5.080;2024-01-30T01:31:16;9.50;;;3.90;;
75073;SDS011;63652;51.526;5.080;2024-01-30T01:33:42;9.70;;;5.07;;
75073;SDS011;63652;51.526;5.080;2024-01-30T01:36:08;8.55;;;4.72;;
75073;SDS011;63652;51.526;5.080;2024-01-30T01:38:37;9.00;;;4.75;;
75073;SDS011;63652;51.526;5.080;2024-01-30T01:41:02;10.82;;;4.80;;
75073;SDS011;63652;51.526;5.080;2024-01-30T01:43:28;8.10;;;3.88;;
75073;SDS011;63652;51.526;5.080;2024-01-30T01:45:53;7.35;;;3.78;;
75073;SDS011;63652;51.526;5.080;2024-01-30T01:48:21;9.02;;;5.00;;
75073;SDS011;63652;51.526;5.080;2024-01-30T01:50:47;9.32;;;3.92;;
75073;SDS011;63652;51.526;5.080;2024-01-30T01:53:12;7.15;;;3.90;;
75073;SDS011;63652;51.526;5.080;2024-01-30T01:55:41;10.27;;;4.30;;
75073;SDS011;63652;51.526;5.080;2024-01-30T01:58:09;9.23;;;4.45;;
75073;SDS011;63652;51.526;5.080;2024-01-30T02:00:37;7.47;;;3.80;;
75073;SDS011;63652;51.526;5.080;2024-01-30T02:03:06;12.38;;;4.70;;
75073;SDS011;63652;51.526;5.080;2024-01-30T02:05:42;7.68;;;4.10;;
75073;SDS011;63652;51.526;5.080;2024-01-30T02:08:16;7.10;;;3.58;;
75073;SDS011;63652;51.526;5.080;2024-01-30T02:10:41;8.20;;;4.65;;
75073;SDS011;63652;51.526;5.080;2024-01-30T02:13:09;8.90;;;4.18;;
75073;SDS011;63652;51.526;5.080;2024-01-30T02:15:35;10.93;;;4.65;;
75073;SDS011;63652;51.526;5.080;2024-01-30T02:18:03;8.45;;;4.43;;
75073;SDS011;63652;51.526;5.080;2024-01-30T02:20:35;7.20;;;3.50;;
75073;SDS011;63652;51.526;5.080;2024-01-30T02:23:03;8.27;;;4.03;;
75073;SDS011;63652;51.526;5.080;2024-01-30T02:25:37;8.55;;;3.50;;
75073;SDS011;63652;51.526;5.080;2024-01-30T02:28:11;9.70;;;4.55;;
75073;SDS011;63652;51.526;5.080;2024-01-30T02:30:39;7.68;;;4.00;;
75073;SDS011;63652;51.526;5.080;2024-01-30T02:33:05;8.55;;;4.43;;
75073;SDS011;63652;51.526;5.080;2024-01-30T02:35:34;9.77;;;4.38;;
75073;SDS011;63652;51.526;5.080;2024-01-30T02:38:11;8.18;;;4.40;;
75073;SDS011;63652;51.526;5.080;2024-01-30T02:40:37;7.85;;;4.25;;
75073;SDS011;63652;51.526;5.080;2024-01-30T02:43:05;7.18;;;3.95;;
75073;SDS011;63652;51.526;5.080;2024-01-30T02:45:38;10.15;;;4.22;;
75073;SDS011;63652;51.526;5.080;2024-01-30T02:48:03;7.70;;;4.53;;
75073;SDS011;63652;51.526;5.080;2024-01-30T02:50:29;12.48;;;4.82;;
75073;SDS011;63652;51.526;5.080;2024-01-30T02:52:54;8.82;;;4.20;;
75073;SDS011;63652;51.526;5.080;2024-01-30T02:55:19;8.27;;;3.97;;
75073;SDS011;63652;51.526;5.080;2024-01-30T02:57:45;8.63;;;3.83;;
75073;SDS011;63652;51.526;5.080;2024-01-30T03:00:11;7.20;;;3.88;;
75073;SDS011;63652;51.526;5.080;2024-01-30T03:02:39;7.10;;;3.45;;
75073;SDS011;63652;51.526;5.080;2024-01-30T03:05:07;7.10;;;3.50;;
75073;SDS011;63652;51.526;5.080;2024-01-30T03:10:00;9.02;;;4.03;;
75073;SDS011;63652;51.526;5.080;2024-01-30T03:12:26;9.25;;;4.28;;
75073;SDS011;63652;51.526;5.080;2024-01-30T03:14:51;9.90;;;4.05;;
75073;SDS011;63652;51.526;5.080;2024-01-30T03:17:17;6.07;;;3.60;;
75073;SDS011;63652;51.526;5.080;2024-01-30T03:19:43;5.65;;;3.25;;
75073;SDS011;63652;51.526;5.080;2024-01-30T03:22:10;8.25;;;4.75;;
75073;SDS011;63652;51.526;5.080;2024-01-30T03:24:39;6.68;;;3.83;;
75073;SDS011;63652;51.526;5.080;2024-01-30T03:27:04;7.50;;;4.00;;
75073;SDS011;63652;51.526;5.080;2024-01-30T03:29:32;12.50;;;4.55;;
75073;SDS011;63652;51.526;5.080;2024-01-30T03:31:58;7.22;;;3.80;;
75073;SDS011;63652;51.526;5.080;2024-01-30T03:34:23;8.50;;;3.28;;
75073;SDS011;63652;51.526;5.080;2024-01-30T03:36:49;6.93;;;4.10;;
75073;SDS011;63652;51.526;5.080;2024-01-30T03:39:23;6.30;;;3.58;;
75073;SDS011;63652;51.526;5.080;2024-01-30T03:41:51;8.45;;;3.95;;
75073;SDS011;63652;51.526;5.080;2024-01-30T03:44:16;6.25;;;3.47;;
75073;SDS011;63652;51.526;5.080;2024-01-30T03:46:42;7.03;;;3.90;;
75073;SDS011;63652;51.526;5.080;2024-01-30T03:49:09;9.70;;;3.80;;
75073;SDS011;63652;51.526;5.080;2024-01-30T03:51:34;7.40;;;3.92;;
75073;SDS011;63652;51.526;5.080;2024-01-30T03:54:00;9.48;;;3.83;;
75073;SDS011;63652;51.526;5.080;2024-01-30T03:56:25;5.63;;;3.13;;
75073;SDS011;63652;51.526;5.080;2024-01-30T03:58:51;6.28;;;3.35;;
75073;SDS011;63652;51.526;5.080;2024-01-30T04:01:16;9.50;;;3.50;;
75073;SDS011;63652;51.526;5.080;2024-01-30T04:03:42;6.90;;;3.42;;
75073;SDS011;63652;51.526;5.080;2024-01-30T04:06:08;8.23;;;3.97;;
75073;SDS011;63652;51.526;5.080;2024-01-30T04:08:34;7.40;;;3.13;;
75073;SDS011;63652;51.526;5.080;2024-01-30T04:11:11;8.85;;;3.72;;
75073;SDS011;63652;51.526;5.080;2024-01-30T04:13:37;7.80;;;3.92;;
75073;SDS011;63652;51.526;5.080;2024-01-30T04:16:02;5.60;;;3.20;;
75073;SDS011;63652;51.526;5.080;2024-01-30T04:18:28;5.22;;;3.20;;
75073;SDS011;63652;51.526;5.080;2024-01-30T04:20:54;8.50;;;3.83;;
75073;SDS011;63652;51.526;5.080;2024-01-30T04:23:20;8.88;;;4.03;;
75073;SDS011;63652;51.526;5.080;2024-01-30T04:25:46;7.70;;;4.55;;
75073;SDS011;63652;51.526;5.080;2024-01-30T04:28:12;6.78;;;3.67;;
75073;SDS011;63652;51.526;5.080;2024-01-30T04:30:38;8.20;;;3.97;;
75073;SDS011;63652;51.526;5.080;2024-01-30T04:33:03;6.35;;;3.65;;
75073;SDS011;63652;51.526;5.080;2024-01-30T04:35:37;6.22;;;3.67;;
75073;SDS011;63652;51.526;5.080;2024-01-30T04:38:02;7.97;;;3.90;;
75073;SDS011;63652;51.526;5.080;2024-01-30T04:40:31;9.73;;;3.97;;
75073;SDS011;63652;51.526;5.080;2024-01-30T04:42:56;9.85;;;4.05;;
75073;SDS011;63652;51.526;5.080;2024-01-30T04:45:22;7.80;;;3.75;;
75073;SDS011;63652;51.526;5.080;2024-01-30T04:47:47;6.32;;;3.70;;
75073;SDS011;63652;51.526;5.080;2024-01-30T04:50:13;7.95;;;4.90;;
75073;SDS011;63652;51.526;5.080;2024-01-30T04:52:38;9.07;;;3.75;;
75073;SDS011;63652;51.526;5.080;2024-01-30T04:55:03;8.20;;;4.47;;
75073;SDS011;63652;51.526;5.080;2024-01-30T04:57:32;7.97;;;3.75;;
75073;SDS011;63652;51.526;5.080;2024-01-30T04:59:58;7.93;;;3.85;;
75073;SDS011;63652;51.526;5.080;2024-01-30T05:02:24;7.60;;;4.50;;
75073;SDS011;63652;51.526;5.080;2024-01-30T05:04:52;11.35;;;4.07;;
75073;SDS011;63652;51.526;5.080;2024-01-30T05:07:17;10.25;;;4.65;;
75073;SDS011;63652;51.526;5.080;2024-01-30T05:09:43;9.25;;;4.18;;
75073;SDS011;63652;51.526;5.080;2024-01-30T05:12:08;8.27;;;4.22;;
75073;SDS011;63652;51.526;5.080;2024-01-30T05:14:36;8.05;;;3.55;;
75073;SDS011;63652;51.526;5.080;2024-01-30T05:17:02;7.70;;;3.60;;
75073;SDS011;63652;51.526;5.080;2024-01-30T05:19:28;7.40;;;3.28;;
75073;SDS011;63652;51.526;5.080;2024-01-30T05:21:53;10.15;;;3.65;;
75073;SDS011;63652;51.526;5.080;2024-01-30T05:24:19;7.22;;;3.30;;
75073;SDS011;63652;51.526;5.080;2024-01-30T05:26:46;11.02;;;4.38;;
75073;SDS011;63652;51.526;5.080;2024-01-30T05:29:13;9.25;;;3.80;;
75073;SDS011;63652;51.526;5.080;2024-01-30T05:31:38;9.77;;;3.30;;
75073;SDS011;63652;51.526;5.080;2024-01-30T05:34:04;11.98;;;4.00;;
75073;SDS011;63652;51.526;5.080;2024-01-30T05:36:31;8.02;;;3.10;;
75073;SDS011;63652;51.526;5.080;2024-01-30T05:38:57;6.45;;;3.63;;
75073;SDS011;63652;51.526;5.080;2024-01-30T05:41:22;7.15;;;4.20;;
75073;SDS011;63652;51.526;5.080;2024-01-30T05:43:48;7.78;;;4.57;;
75073;SDS011;63652;51.526;5.080;2024-01-30T05:46:13;6.95;;;3.53;;
75073;SDS011;63652;51.526;5.080;2024-01-30T05:48:38;6.22;;;3.53;;
75073;SDS011;63652;51.526;5.080;2024-01-30T05:51:04;7.30;;;2.88;;
75073;SDS011;63652;51.526;5.080;2024-01-30T05:53:30;10.27;;;3.65;;
75073;SDS011;63652;51.526;5.080;2024-01-30T05:55:55;7.65;;;3.10;;
75073;SDS011;63652;51.526;5.080;2024-01-30T05:58:21;8.35;;;2.95;;
75073;SDS011;63652;51.526;5.080;2024-01-30T06:00:47;6.53;;;3.33;;
75073;SDS011;63652;51.526;5.080;2024-01-30T06:03:12;11.25;;;3.35;;
75073;SDS011;63652;51.526;5.080;2024-01-30T06:05:40;5.65;;;3.33;;
75073;SDS011;63652;51.526;5.080;2024-01-30T06:08:05;6.75;;;2.92;;
75073;SDS011;63652;51.526;5.080;2024-01-30T06:10:41;7.07;;;3.00;;
75073;SDS011;63652;51.526;5.080;2024-01-30T06:13:14;8.60;;;3.95;;
75073;SDS011;63652;51.526;5.080;2024-01-30T06:15:40;8.57;;;2.92;;
75073;SDS011;63652;51.526;5.080;2024-01-30T06:18:05;5.18;;;3.15;;
75073;SDS011;63652;51.526;5.080;2024-01-30T06:20:31;8.55;;;3.50;;
75073;SDS011;63652;51.526;5.080;2024-01-30T06:22:56;7.22;;;3.13;;
75073;SDS011;63652;51.526;5.080;2024-01-30T06:25:22;7.45;;;3.45;;
75073;SDS011;63652;51.526;5.080;2024-01-30T06:27:47;9.48;;;3.67;;
75073;SDS011;63652;51.526;5.080;2024-01-30T06:30:23;7.43;;;3.65;;
75073;SDS011;63652;51.526;5.080;2024-01-30T06:32:48;8.07;;;3.53;;
75073;SDS011;63652;51.526;5.080;2024-01-30T06:35:16;7.13;;;3.85;;
75073;SDS011;63652;51.526;5.080;2024-01-30T06:37:42;9.30;;;3.30;;
75073;SDS011;63652;51.526;5.080;2024-01-30T06:40:10;7.95;;;3.33;;
75073;SDS011;63652;51.526;5.080;2024-01-30T06:42:39;10.05;;;3.80;;
75073;SDS011;63652;51.526;5.080;2024-01-30T06:45:08;7.25;;;3.10;;
75073;SDS011;63652;51.526;5.080;2024-01-30T06:47:36;11.75;;;4.72;;
75073;SDS011;63652;51.526;5.080;2024-01-30T06:50:02;8.77;;;4.45;;
75073;SDS011;63652;51.526;5.080;2024-01-30T06:52:28;6.90;;;4.00;;
75073;SDS011;63652;51.526;5.080;2024-01-30T06:54:53;9.57;;;4.20;;
75073;SDS011;63652;51.526;5.080;2024-01-30T06:57:22;7.50;;;4.05;;
75073;SDS011;63652;51.526;5.080;2024-01-30T06:59:47;10.02;;;4.13;;
75073;SDS011;63652;51.526;5.080;2024-01-30T07:02:13;8.75;;;3.38;;
75073;SDS011;63652;51.526;5.080;2024-01-30T07:04:38;8.00;;;4.00;;
75073;SDS011;63652;51.526;5.080;2024-01-30T07:07:13;9.05;;;4.25;;
75073;SDS011;63652;51.526;5.080;2024-01-30T07:09:39;9.00;;;4.03;;
75073;SDS011;63652;51.526;5.080;2024-01-30T07:12:06;6.63;;;3.90;;
75073;SDS011;63652;51.526;5.080;2024-01-30T07:14:34;10.00;;;4.32;;
75073;SDS011;63652;51.526;5.080;2024-01-30T07:17:02;8.10;;;3.95;;
75073;SDS011;63652;51.526;5.080;2024-01-30T07:19:27;8.55;;;3.70;;
75073;SDS011;63652;51.526;5.080;2024-01-30T07:21:52;9.50;;;4.30;;
75073;SDS011;63652;51.526;5.080;2024-01-30T07:24:21;8.75;;;3.85;;
75073;SDS011;63652;51.526;5.080;2024-01-30T07:26:46;10.45;;;4.90;;
75073;SDS011;63652;51.526;5.080;2024-01-30T07:29:12;7.63;;;3.50;;
75073;SDS011;63652;51.526;5.080;2024-01-30T07:31:37;9.63;;;4.43;;
75073;SDS011;63652;51.526;5.080;2024-01-30T07:34:02;9.07;;;4.60;;
75073;SDS011;63652;51.526;5.080;2024-01-30T07:36:41;8.80;;;3.90;;
75073;SDS011;63652;51.526;5.080;2024-01-30T07:39:08;9.27;;;4.22;;
75073;SDS011;63652;51.526;5.080;2024-01-30T07:41:33;11.13;;;4.07;;
75073;SDS011;63652;51.526;5.080;2024-01-30T07:44:02;8.82;;;4.15;;
75073;SDS011;63652;51.526;5.080;2024-01-30T07:46:30;10.40;;;4.57;;
75073;SDS011;63652;51.526;5.080;2024-01-30T07:48:55;9.07;;;3.85;;
75073;SDS011;63652;51.526;5.080;2024-01-30T07:51:22;7.03;;;4.20;;
75073;SDS011;63652;51.526;5.080;2024-01-30T07:53:53;8.95;;;4.13;;
75073;SDS011;63652;51.526;5.080;2024-01-30T07:56:22;7.30;;;4.28;;
75073;SDS011;63652;51.526;5.080;2024-01-30T07:58:50;7.78;;;3.88;;
75073;SDS011;63652;51.526;5.080;2024-01-30T08:01:15;8.98;;;4.43;;
75073;SDS011;63652;51.526;5.080;2024-01-30T08:03:41;7.22;;;3.78;;
75073;SDS011;63652;51.526;5.080;2024-01-30T08:06:10;7.95;;;4.22;;
75073;SDS011;63652;51.526;5.080;2024-01-30T08:08:37;9.35;;;4.45;;
75073;SDS011;63652;51.526;5.080;2024-01-30T08:11:05;8.60;;;4.15;;
75073;SDS011;63652;51.526;5.080;2024-01-30T08:13:33;7.50;;;4.28;;
75073;SDS011;63652;51.526;5.080;2024-01-30T08:15:59;9.50;;;4.43;;
75073;SDS011;63652;51.526;5.080;2024-01-30T08:18:24;11.13;;;4.47;;
75073;SDS011;63652;51.526;5.080;2024-01-30T08:20:51;7.65;;;3.72;;
75073;SDS011;63652;51.526;5.080;2024-01-30T08:23:16;8.80;;;4.43;;
75073;SDS011;63652;51.526;5.080;2024-01-30T08:25:41;9.07;;;4.35;;
75073;SDS011;63652;51.526;5.080;2024-01-30T08:28:10;9.13;;;4.10;;
75073;SDS011;63652;51.526;5.080;2024-01-30T08:30:38;11.90;;;5.03;;
75073;SDS011;63652;51.526;5.080;2024-01-30T08:33:04;10.02;;;4.95;;
75073;SDS011;63652;51.526;5.080;2024-01-30T08:35:33;8.77;;;3.95;;
75073;SDS011;63652;51.526;5.080;2024-01-30T08:38:06;8.13;;;3.90;;
75073;SDS011;63652;51.526;5.080;2024-01-30T08:40:40;7.97;;;4.18;;
75073;SDS011;63652;51.526;5.080;2024-01-30T08:43:05;9.48;;;4.38;;
75073;SDS011;63652;51.526;5.080;2024-01-30T08:45:37;9.27;;;4.20;;
75073;SDS011;63652;51.526;5.080;2024-01-30T08:48:03;9.73;;;3.97;;
75073;SDS011;63652;51.526;5.080;2024-01-30T08:50:29;10.18;;;4.00;;
75073;SDS011;63652;51.526;5.080;2024-01-30T08:52:54;9.93;;;4.18;;
75073;SDS011;63652;51.526;5.080;2024-01-30T08:55:20;8.93;;;4.65;;
75073;SDS011;63652;51.526;5.080;2024-01-30T08:57:45;9.18;;;3.95;;
75073;SDS011;63652;51.526;5.080;2024-01-30T09:00:11;10.18;;;3.67;;
75073;SDS011;63652;51.526;5.080;2024-01-30T09:02:37;10.43;;;4.93;;
75073;SDS011;63652;51.526;5.080;2024-01-30T09:05:02;8.48;;;4.35;;
75073;SDS011;63652;51.526;5.080;2024-01-30T09:07:31;7.68;;;3.85;;
75073;SDS011;63652;51.526;5.080;2024-01-30T09:09:56;9.32;;;4.45;;
75073;SDS011;63652;51.526;5.080;2024-01-30T09:12:21;7.93;;;3.72;;
75073;SDS011;63652;51.526;5.080;2024-01-30T09:14:47;10.95;;;4.53;;
75073;SDS011;63652;51.526;5.080;2024-01-30T09:17:12;9.82;;;4.38;;
75073;SDS011;63652;51.526;5.080;2024-01-30T09:19:40;7.68;;;3.95;;
75073;SDS011;63652;51.526;5.080;2024-01-30T09:22:08;11.13;;;4.80;;
75073;SDS011;63652;51.526;5.080;2024-01-30T09:24:34;7.22;;;4.30;;
75073;SDS011;63652;51.526;5.080;2024-01-30T09:27:08;13.70;;;5.03;;
75073;SDS011;63652;51.526;5.080;2024-01-30T09:29:43;7.95;;;4.25;;
75073;SDS011;63652;51.526;5.080;2024-01-30T09:32:10;6.82;;;3.85;;
75073;SDS011;63652;51.526;5.080;2024-01-30T09:34:38;11.00;;;4.40;;
75073;SDS011;63652;51.526;5.080;2024-01-30T09:37:07;12.82;;;3.97;;
75073;SDS011;63652;51.526;5.080;2024-01-30T09:39:51;9.35;;;4.70;;
75073;SDS011;63652;51.526;5.080;2024-01-30T09:42:20;11.05;;;4.60;;
75073;SDS011;63652;51.526;5.080;2024-01-30T09:45:18;8.95;;;4.60;;
75073;SDS011;63652;51.526;5.080;2024-01-30T09:47:44;8.35;;;4.35;;
75073;SDS011;63652;51.526;5.080;2024-01-30T09:50:10;8.95;;;4.43;;
75073;SDS011;63652;51.526;5.080;2024-01-30T09:52:40;9.32;;;4.60;;
75073;SDS011;63652;51.526;5.080;2024-01-30T09:55:08;8.10;;;4.50;;
75073;SDS011;63652;51.526;5.080;2024-01-30T09:57:37;9.48;;;4.78;;
75073;SDS011;63652;51.526;5.080;2024-01-30T10:00:03;9.07;;;4.18;;
75073;SDS011;63652;51.526;5.080;2024-01-30T10:02:38;10.35;;;4.63;;
75073;SDS011;63652;51.526;5.080;2024-01-30T10:05:09;9.85;;;5.13;;
75073;SDS011;63652;51.526;5.080;2024-01-30T10:07:39;10.35;;;5.03;;
75073;SDS011;63652;51.526;5.080;2024-01-30T10:10:23;11.00;;;4.45;;
75073;SDS011;63652;51.526;5.080;2024-01-30T10:12:51;11.65;;;5.68;;
75073;SDS011;63652;51.526;5.080;2024-01-30T10:15:17;11.63;;;4.88;;
75073;SDS011;63652;51.526;5.080;2024-01-30T10:17:44;9.10;;;4.25;;
75073;SDS011;63652;51.526;5.080;2024-01-30T10:20:10;10.18;;;4.47;;
75073;SDS011;63652;51.526;5.080;2024-01-30T10:23:09;11.48;;;5.13;;
75073;SDS011;63652;51.526;5.080;2024-01-30T10:25:38;10.68;;;5.28;;
75073;SDS011;63652;51.526;5.080;2024-01-30T10:28:12;10.20;;;4.47;;
75073;SDS011;63652;51.526;5.080;2024-01-30T10:30:38;10.10;;;4.53;;
75073;SDS011;63652;51.526;5.080;2024-01-30T10:33:09;11.52;;;5.22;;
75073;SDS011;63652;51.526;5.080;2024-01-30T10:35:38;12.05;;;4.68;;
75073;SDS011;63652;51.526;5.080;2024-01-30T10:38:09;14.20;;;5.38;;
75073;SDS011;63652;51.526;5.080;2024-01-30T10:40:38;11.13;;;4.60;;
75073;SDS011;63652;51.526;5.080;2024-01-30T10:43:13;11.98;;;4.97;;
75073;SDS011;63652;51.526;5.080;2024-01-30T10:45:40;9.25;;;4.00;;
75073;SDS011;63652;51.526;5.080;2024-01-30T10:48:10;11.07;;;4.32;;
75073;SDS011;63652;51.526;5.080;2024-01-30T10:50:42;7.93;;;3.80;;
75073;SDS011;63652;51.526;5.080;2024-01-30T10:53:08;8.75;;;3.35;;
75073;SDS011;63652;51.526;5.080;2024-01-30T10:55:38;8.43;;;3.90;;
75073;SDS011;63652;51.526;5.080;2024-01-30T10:58:10;8.68;;;3.92;;
75073;SDS011;63652;51.526;5.080;2024-01-30T11:00:43;9.27;;;3.63;;
75073;SDS011;63652;51.526;5.080;2024-01-30T11:03:11;13.38;;;4.30;;
75073;SDS011;63652;51.526;5.080;2024-01-30T11:05:43;9.82;;;3.67;;
75073;SDS011;63652;51.526;5.080;2024-01-30T11:08:14;7.72;;;3.90;;
75073;SDS011;63652;51.526;5.080;2024-01-30T11:10:46;6.10;;;3.55;;
75073;SDS011;63652;51.526;5.080;2024-01-30T11:13:15;9.32;;;3.85;;
75073;SDS011;63652;51.526;5.080;2024-01-30T11:15:41;9.65;;;4.22;;
75073;SDS011;63652;51.526;5.080;2024-01-30T11:18:22;13.50;;;4.88;;
75073;SDS011;63652;51.526;5.080;2024-01-30T11:20:48;8.38;;;4.38;;
75073;SDS011;63652;51.526;5.080;2024-01-30T11:23:13;6.38;;;3.65;;
75073;SDS011;63652;51.526;5.080;2024-01-30T11:25:43;6.18;;;3.30;;
75073;SDS011;63652;51.526;5.080;2024-01-30T11:28:16;5.78;;;3.42;;
75073;SDS011;63652;51.526;5.080;2024-01-30T11:30:42;8.00;;;3.50;;
75073;SDS011;63652;51.526;5.080;2024-01-30T11:33:11;9.57;;;3.95;;
75073;SDS011;63652;51.526;5.080;2024-01-30T11:35:41;7.50;;;3.20;;
75073;SDS011;63652;51.526;5.080;2024-01-30T11:38:16;8.77;;;3.25;;
75073;SDS011;63652;51.526;5.080;2024-01-30T11:40:42;10.63;;;4.15;;
75073;SDS011;63652;51.526;5.080;2024-01-30T11:43:09;8.68;;;3.50;;
75073;SDS011;63652;51.526;5.080;2024-01-30T11:45:37;6.30;;;3.75;;
75073;SDS011;63652;51.526;5.080;2024-01-30T11:48:07;9.73;;;3.72;;
75073;SDS011;63652;51.526;5.080;2024-01-30T11:50:40;8.02;;;3.50;;
75073;SDS011;63652;51.526;5.080;2024-01-30T11:53:05;10.35;;;2.85;;
75073;SDS011;63652;51.526;5.080;2024-01-30T11:55:31;6.78;;;2.15;;
75073;SDS011;63652;51.526;5.080;2024-01-30T11:57:57;5.63;;;2.65;;
75073;SDS011;63652;51.526;5.080;2024-01-30T12:00:29;7.05;;;2.13;;
75073;SDS011;63652;51.526;5.080;2024-01-30T12:02:55;6.38;;;2.42;;
75073;SDS011;63652;51.526;5.080;2024-01-30T12:05:22;6.93;;;2.47;;
75073;SDS011;63652;51.526;5.080;2024-01-30T12:07:48;4.70;;;1.40;;
75073;SDS011;63652;51.526;5.080;2024-01-30T12:10:14;5.07;;;1.77;;
75073;SDS011;63652;51.526;5.080;2024-01-30T12:12:40;2.67;;;1.40;;
75073;SDS011;63652;51.526;5.080;2024-01-30T12:15:10;2.97;;;1.10;;
75073;SDS011;63652;51.526;5.080;2024-01-30T12:17:41;1.85;;;0.93;;
75073;SDS011;63652;51.526;5.080;2024-01-30T12:20:10;3.45;;;1.02;;
75073;SDS011;63652;51.526;5.080;2024-01-30T12:22:40;2.65;;;0.70;;
75073;SDS011;63652;51.526;5.080;2024-01-30T12:27:42;1.92;;;0.63;;
75073;SDS011;63652;51.526;5.080;2024-01-30T12:30:09;2.88;;;0.68;;
75073;SDS011;63652;51.526;5.080;2024-01-30T12:32:41;3.13;;;0.93;;
75073;SDS011;63652;51.526;5.080;2024-01-30T12:35:09;1.33;;;0.52;;
75073;SDS011;63652;51.526;5.080;2024-01-30T12:40:38;2.72;;;0.98;;
75073;SDS011;63652;51.526;5.080;2024-01-30T12:43:10;2.83;;;0.70;;
75073;SDS011;63652;51.526;5.080;2024-01-30T12:45:38;3.17;;;0.80;;
75073;SDS011;63652;51.526;5.080;2024-01-30T12:48:10;3.55;;;0.90;;
75073;SDS011;63652;51.526;5.080;2024-01-30T12:50:40;1.73;;;0.82;;
75073;SDS011;63652;51.526;5.080;2024-01-30T12:53:08;1.33;;;0.63;;
75073;SDS011;63652;51.526;5.080;2024-01-30T12:55:40;2.13;;;0.73;;
75073;SDS011;63652;51.526;5.080;2024-01-30T12:58:11;3.42;;;1.27;;
75073;SDS011;63652;51.526;5.080;2024-01-30T13:00:37;1.80;;;0.80;;
75073;SDS011;63652;51.526;5.080;2024-01-30T13:03:09;2.88;;;0.80;;
75073;SDS011;63652;51.526;5.080;2024-01-30T13:05:38;1.48;;;0.80;;
75073;SDS011;63652;51.526;5.080;2024-01-30T13:08:09;2.00;;;0.70;;
75073;SDS011;63652;51.526;5.080;2024-01-30T13:10:40;5.03;;;0.90;;
75073;SDS011;63652;51.526;5.080;2024-01-30T13:13:08;3.85;;;1.05;;
75073;SDS011;63652;51.526;5.080;2024-01-30T13:15:40;2.38;;;0.63;;
75073;SDS011;63652;51.526;5.080;2024-01-30T13:18:09;4.00;;;1.23;;
75073;SDS011;63652;51.526;5.080;2024-01-30T13:20:37;2.03;;;1.00;;
75073;SDS011;63652;51.526;5.080;2024-01-30T13:23:08;3.00;;;0.88;;
75073;SDS011;63652;51.526;5.080;2024-01-30T13:25:37;2.65;;;0.60;;
75073;SDS011;63652;51.526;5.080;2024-01-30T13:30:52;1.55;;;0.70;;
75073;SDS011;63652;51.526;5.080;2024-01-30T13:33:18;2.60;;;0.80;;
75073;SDS011;63652;51.526;5.080;2024-01-30T13:35:43;2.22;;;0.73;;
75073;SDS011;63652;51.526;5.080;2024-01-30T13:41:09;4.22;;;1.38;;
75073;SDS011;63652;51.526;5.080;2024-01-30T13:43:37;1.45;;;0.60;;
75073;SDS011;63652;51.526;5.080;2024-01-30T13:46:13;5.13;;;0.70;;
75073;SDS011;63652;51.526;5.080;2024-01-30T13:48:39;1.77;;;0.80;;
75073;SDS011;63652;51.526;5.080;2024-01-30T13:51:10;1.48;;;0.63;;
75073;SDS011;63652;51.526;5.080;2024-01-30T13:53:38;3.53;;;0.60;;
75073;SDS011;63652;51.526;5.080;2024-01-30T13:56:09;4.25;;;1.35;;
75073;SDS011;63652;51.526;5.080;2024-01-30T13:58:44;3.58;;;0.70;;
75073;SDS011;63652;51.526;5.080;2024-01-30T14:01:12;3.00;;;1.15;;
75073;SDS011;63652;51.526;5.080;2024-01-30T14:03:51;8.32;;;1.17;;
75073;SDS011;63652;51.526;5.080;2024-01-30T14:06:48;3.70;;;1.10;;
75073;SDS011;63652;51.526;5.080;2024-01-30T14:09:17;3.42;;;1.27;;
75073;SDS011;63652;51.526;5.080;2024-01-30T14:11:42;5.88;;;2.05;;
75073;SDS011;63652;51.526;5.080;2024-01-30T14:14:10;2.63;;;1.60;;
75073;SDS011;63652;51.526;5.080;2024-01-30T14:16:39;5.70;;;2.00;;
75073;SDS011;63652;51.526;5.080;2024-01-30T14:19:09;5.38;;;2.30;;
75073;SDS011;63652;51.526;5.080;2024-01-30T14:21:40;8.90;;;2.80;;
75073;SDS011;63652;51.526;5.080;2024-01-30T14:24:12;8.85;;;2.78;;
75073;SDS011;63652;51.526;5.080;2024-01-30T14:26:40;7.75;;;2.72;;
75073;SDS011;63652;51.526;5.080;2024-01-30T14:29:08;4.30;;;2.45;;
75073;SDS011;63652;51.526;5.080;2024-01-30T14:31:39;4.72;;;2.47;;
75073;SDS011;63652;51.526;5.080;2024-01-30T14:34:15;7.43;;;2.75;;
75073;SDS011;63652;51.526;5.080;2024-01-30T14:36:41;5.53;;;2.22;;
75073;SDS011;63652;51.526;5.080;2024-01-30T14:39:09;5.57;;;2.53;;
75073;SDS011;63652;51.526;5.080;2024-01-30T14:41:41;7.50;;;1.92;;
75073;SDS011;63652;51.526;5.080;2024-01-30T14:44:10;5.38;;;2.33;;
75073;SDS011;63652;51.526;5.080;2024-01-30T14:46:39;9.00;;;2.85;;
75073;SDS011;63652;51.526;5.080;2024-01-30T14:49:08;7.63;;;2.40;;
75073;SDS011;63652;51.526;5.080;2024-01-30T14:51:43;7.72;;;2.28;;
75073;SDS011;63652;51.526;5.080;2024-01-30T14:54:11;6.18;;;2.30;;
75073;SDS011;63652;51.526;5.080;2024-01-30T14:56:40;5.30;;;2.20;;
75073;SDS011;63652;51.526;5.080;2024-01-30T14:59:05;6.80;;;2.63;;
75073;SDS011;63652;51.526;5.080;2024-01-30T15:01:31;6.30;;;2.45;;
75073;SDS011;63652;51.526;5.080;2024-01-30T15:03:56;7.50;;;2.30;;